Bowden, Canada
Current Conditions -  °F | °C
As of 4:00 PM on Saturday 25 Oct 2014 (Local Time) from CYQF Reporting Station
Broken Clouds Broken Clouds  
Wind Chill: 40°   Ceiling: 4200
Heat Index: 46°   Visibility: 15mi
Dew Point: 25°   Wind: 16mph
Humidity: 43%   Direction: 140°SE
Pressure: 29.69"   Gusts: 24mph
Location:  51.92°N, 114.03°W
Report Text: CYQF 252200Z 14014G21KT 15SM BKN042 08/M04 A2969 RMK SC7 SLP088 DENSITY ALT 3000FT
Loading
Personal Weather Stations






























Interactive Weather Map
Tropical Storm Tracking
New forecast layout! Learn more

10-Day Weather Forecast

Advertisements
Track Severe Weather on mobile